Time;durP1;ratioP1;P1;durP2;ratioP2;P2;SDS_P1;SDS_P2;PMS_P1;PMS_P2;Temp;Humidity;BMP_temperature;BMP_pressure;BME280_temperature;BME280_humidity;BME280_pressure;Samples;Min_cycle;Max_cycle;Signal;HPM_P1;HPM_P2
2023/01/15 00:01:20;;;;;;;9.50;2.50;;;7.30;99.90;;;;;;5071552;27;20050;-82
2023/01/15 00:03:46;;;;;;;9.82;1.90;;;7.30;99.90;;;;;;5107397;27;20051;-81
2023/01/15 00:06:11;;;;;;;14.25;2.42;;;7.40;99.90;;;;;;5087372;27;20058;-81
2023/01/15 00:08:37;;;;;;;13.68;2.47;;;7.30;99.90;;;;;;5069190;27;20097;-81
2023/01/15 00:11:04;;;;;;;11.60;2.10;;;7.40;99.90;;;;;;5102182;27;20043;-80
2023/01/15 00:13:29;;;;;;;14.70;2.60;;;7.30;99.90;;;;;;5085889;27;20050;-82
2023/01/15 00:16:12;;;;;;;11.65;2.05;;;7.40;99.90;;;;;;5099992;27;20544;-82
2023/01/15 00:18:39;;;;;;;15.32;2.38;;;7.30;99.90;;;;;;5109269;27;20047;-81
2023/01/15 00:21:12;;;;;;;11.13;2.42;;;7.30;99.90;;;;;;5088286;27;20436;-82
2023/01/15 00:29:13;;;;;;;14.02;3.13;;;7.30;99.90;;;;;;5116981;27;20057;-83
2023/01/15 00:31:39;;;;;;;13.40;2.25;;;7.20;99.90;;;;;;5124212;27;20130;-83
2023/01/15 00:34:05;;;;;;;8.98;2.33;;;7.20;99.90;;;;;;5100153;27;20055;-82
2023/01/15 00:36:32;;;;;;;12.38;2.47;;;7.20;99.90;;;;;;5100252;27;20039;-82
2023/01/15 00:38:58;;;;;;;9.40;1.90;;;7.20;99.90;;;;;;5089178;27;20150;-81
2023/01/15 00:41:24;;;;;;;11.45;2.78;;;7.20;99.90;;;;;;5092553;27;20054;-81
2023/01/15 00:43:51;;;;;;;14.75;2.17;;;7.20;99.90;;;;;;5086162;27;20062;-82
2023/01/15 00:46:18;;;;;;;8.23;2.08;;;7.20;99.90;;;;;;5107831;27;20050;-82
2023/01/15 00:48:43;;;;;;;12.20;2.28;;;7.20;99.90;;;;;;5085136;27;20812;-82
2023/01/15 00:51:09;;;;;;;16.77;2.20;;;7.20;99.90;;;;;;5106208;27;20038;-81
2023/01/15 00:53:37;;;;;;;11.55;2.28;;;7.20;99.90;;;;;;5073591;27;20069;-82
2023/01/15 00:56:04;;;;;;;14.07;2.47;;;7.20;99.90;;;;;;5100893;27;20058;-80
2023/01/15 00:58:29;;;;;;;11.88;2.45;;;7.20;99.90;;;;;;5085710;27;20083;-80
2023/01/15 01:00:57;;;;;;;15.20;2.38;;;7.20;99.90;;;;;;5114819;27;20047;-80
2023/01/15 01:03:23;;;;;;;14.88;2.53;;;7.10;99.90;;;;;;5100060;27;20043;-80
2023/01/15 01:05:49;;;;;;;13.20;2.90;;;7.10;99.90;;;;;;5102048;27;20039;-79
2023/01/15 01:08:16;;;;;;;10.73;2.22;;;7.10;99.90;;;;;;5102482;27;20042;-81
2023/01/15 01:10:41;;;;;;;11.32;2.30;;;7.10;99.90;;;;;;5092527;27;20051;-83
2023/01/15 01:13:08;;;;;;;14.52;2.78;;;7.10;99.90;;;;;;5101773;27;20122;-82
2023/01/15 01:15:35;;;;;;;7.68;2.13;;;7.10;99.90;;;;;;5107467;27;20086;-83
2023/01/15 01:18:02;;;;;;;8.93;2.05;;;7.10;99.90;;;;;;5104096;27;20499;-82
2023/01/15 01:20:28;;;;;;;11.07;2.25;;;7.00;99.90;;;;;;5118665;27;20047;-84
2023/01/15 01:22:54;;;;;;;10.65;2.15;;;7.10;99.90;;;;;;5082290;27;20035;-81
2023/01/15 01:25:19;;;;;;;13.13;2.55;;;7.10;99.90;;;;;;5106086;27;20057;-80
2023/01/15 01:27:46;;;;;;;11.18;2.10;;;7.10;99.90;;;;;;5086163;27;20042;-83
2023/01/15 01:30:13;;;;;;;8.93;2.33;;;7.00;99.90;;;;;;5102933;27;20454;-83
2023/01/15 01:32:43;;;;;;;12.07;2.15;;;7.10;99.90;;;;;;5092458;27;20518;-81
2023/01/15 01:35:09;;;;;;;8.25;2.25;;;7.10;99.90;;;;;;5100471;27;20050;-82
2023/01/15 01:37:35;;;;;;;12.43;2.50;;;7.10;99.90;;;;;;5102071;27;20089;-83
2023/01/15 01:40:01;;;;;;;15.10;2.47;;;7.10;99.90;;;;;;5101647;27;20074;-83
2023/01/15 01:42:26;;;;;;;9.73;2.17;;;7.10;99.90;;;;;;5099387;27;20399;-81
2023/01/15 01:45:06;;;;;;;13.45;2.45;;;7.10;99.90;;;;;;5099267;27;20066;-82
2023/01/15 01:47:34;;;;;;;13.13;2.35;;;7.10;99.90;;;;;;5106423;27;20537;-83
2023/01/15 01:50:05;;;;;;;14.02;2.00;;;7.20;99.90;;;;;;5120026;27;20077;-81
2023/01/15 01:52:55;;;;;;;11.40;2.38;;;7.20;99.90;;;;;;5113318;27;20050;-81
2023/01/15 01:55:22;;;;;;;10.40;2.50;;;7.20;99.90;;;;;;5105329;27;20049;-81
2023/01/15 01:57:51;;;;;;;10.98;2.38;;;7.20;99.90;;;;;;5098876;27;20043;-81
2023/01/15 02:00:17;;;;;;;8.85;2.05;;;7.20;99.90;;;;;;5117257;27;20046;-80
2023/01/15 02:02:46;;;;;;;13.38;2.40;;;7.20;99.90;;;;;;5105812;27;20130;-82
2023/01/15 02:05:29;;;;;;;12.15;2.33;;;7.20;99.90;;;;;;5119827;27;20112;-81
2023/01/15 02:07:55;;;;;;;13.63;2.00;;;7.20;99.90;;;;;;5101149;27;20047;-81
2023/01/15 02:10:21;;;;;;;13.00;2.08;;;7.20;99.90;;;;;;5104097;27;20508;-81
2023/01/15 02:13:06;;;;;;;11.50;2.08;;;7.20;99.90;;;;;;5099820;27;20203;-81
2023/01/15 02:15:37;;;;;;;15.73;2.83;;;7.20;99.90;;;;;;5097411;27;20368;-80
2023/01/15 02:18:14;;;;;;;7.85;2.28;;;7.10;99.90;;;;;;5111010;27;20081;-81
2023/01/15 02:20:51;;;;;;;11.93;2.13;;;7.10;99.90;;;;;;5114272;27;20043;-79
2023/01/15 02:23:20;;;;;;;15.57;2.88;;;6.90;99.90;;;;;;5100839;27;20130;-83
2023/01/15 02:26:08;;;;;;;12.48;2.75;;;7.10;99.90;;;;;;5103064;27;20195;-84
2023/01/15 02:28:43;;;;;;;11.30;2.30;;;7.20;99.90;;;;;;5104826;27;20122;-81
2023/01/15 02:31:16;;;;;;;10.65;2.60;;;7.10;99.90;;;;;;5103446;27;20060;-80
2023/01/15 02:34:18;;;;;;;13.07;2.50;;;7.10;99.90;;;;;;5106641;27;20062;-80
2023/01/15 02:36:49;;;;;;;14.48;2.70;;;7.10;99.90;;;;;;5087391;27;20051;-80
2023/01/15 02:39:18;;;;;;;7.95;2.00;;;7.00;99.90;;;;;;5099546;27;20488;-80
2023/01/15 02:41:50;;;;;;;9.85;2.53;;;7.00;99.90;;;;;;5116062;27;20976;-80
2023/01/15 02:44:19;;;;;;;14.77;2.35;;;7.00;99.90;;;;;;5098250;27;20047;-82
2023/01/15 02:46:45;;;;;;;11.60;2.28;;;7.00;99.90;;;;;;5097157;27;20053;-79
2023/01/15 02:49:15;;;;;;;13.52;2.28;;;7.00;99.90;;;;;;5098671;27;20969;-80
2023/01/15 02:52:15;;;;;;;9.43;1.98;;;7.00;99.90;;;;;;5103838;27;20058;-82
2023/01/15 02:54:49;;;;;;;8.55;2.15;;;6.90;99.90;;;;;;5111670;27;20438;-80
2023/01/15 02:57:17;;;;;;;11.50;1.80;;;6.90;99.90;;;;;;5106250;27;20134;-83
2023/01/15 02:59:47;;;;;;;9.48;2.58;;;6.90;99.90;;;;;;5104238;27;20549;-81
2023/01/15 03:02:22;;;;;;;13.68;2.80;;;6.90;99.90;;;;;;5116011;27;20050;-80
2023/01/15 03:04:55;;;;;;;8.90;1.98;;;6.90;99.90;;;;;;5114032;27;20266;-81
2023/01/15 03:07:43;;;;;;;9.73;2.20;;;6.90;99.90;;;;;;5114031;27;20062;-82
2023/01/15 03:10:10;;;;;;;12.88;2.97;;;6.90;99.90;;;;;;5102971;27;20307;-82
2023/01/15 03:13:03;;;;;;;13.57;2.40;;;7.00;99.90;;;;;;5104041;27;20047;-80
2023/01/15 03:18:44;;;;;;;;;;;6.80;99.90;;;;;;5111158;27;20369;-81
2023/01/15 03:21:14;;;;;;;10.40;1.88;;;6.90;99.90;;;;;;5095451;28;20092;-80
2023/01/15 03:23:45;;;;;;;11.20;2.13;;;6.80;99.90;;;;;;5109499;28;20054;-81
2023/01/15 03:26:11;;;;;;;10.05;1.85;;;6.80;99.90;;;;;;5102572;28;20047;-80
2023/01/15 03:28:38;;;;;;;8.18;2.17;;;6.80;99.90;;;;;;5078807;28;20040;-81
2023/01/15 03:31:04;;;;;;;15.30;2.20;;;6.80;99.90;;;;;;5076927;28;20495;-81
2023/01/15 03:33:30;;;;;;;11.07;2.25;;;6.80;99.90;;;;;;5096311;28;20042;-81
2023/01/15 03:36:02;;;;;;;13.88;2.63;;;6.80;99.90;;;;;;5081531;28;20120;-81
2023/01/15 03:38:37;;;;;;;9.82;1.92;;;6.80;99.90;;;;;;5102361;28;20070;-81
2023/01/15 03:41:14;;;;;;;11.00;2.50;;;6.80;99.90;;;;;;5090115;28;20048;-81
2023/01/15 03:44:06;;;;;;;11.30;2.13;;;6.70;99.90;;;;;;5112136;28;20047;-81
2023/01/15 03:46:51;;;;;;;8.82;1.90;;;5.70;99.90;;;;;;5112319;28;20067;-81
2023/01/15 03:49:16;;;;;;;14.45;2.30;;;6.80;99.90;;;;;;5110598;28;20050;-81
2023/01/15 03:52:09;;;;;;;6.05;1.67;;;6.70;99.90;;;;;;5094424;28;20039;-80
2023/01/15 03:54:52;;;;;;;10.25;2.03;;;6.70;99.90;;;;;;5084544;28;20047;-82
2023/01/15 03:57:33;;;;;;;9.27;2.38;;;6.80;99.90;;;;;;5110583;28;20040;-82
2023/01/15 04:00:05;;;;;;;14.52;2.20;;;6.70;99.90;;;;;;5093793;28;20488;-81
2023/01/15 04:02:33;;;;;;;12.15;2.17;;;6.70;99.90;;;;;;5101053;28;20313;-80
2023/01/15 04:04:59;;;;;;;10.80;2.10;;;6.70;99.90;;;;;;5095055;28;20058;-82
2023/01/15 04:07:26;;;;;;;10.23;2.22;;;6.50;99.90;;;;;;5082650;28;20080;-81
2023/01/15 04:09:52;;;;;;;11.95;2.60;;;6.70;99.90;;;;;;5086481;28;20050;-81
2023/01/15 04:12:17;;;;;;;12.63;2.28;;;6.70;99.90;;;;;;5094581;28;20039;-80
2023/01/15 04:14:43;;;;;;;11.57;2.42;;;6.70;99.90;;;;;;5078945;27;20105;-80
2023/01/15 04:17:09;;;;;;;8.07;1.98;;;6.70;99.90;;;;;;5099150;27;20069;-80
2023/01/15 04:19:35;;;;;;;15.90;2.53;;;6.70;99.90;;;;;;5097057;27;20051;-80
2023/01/15 04:22:00;;;;;;;11.60;2.30;;;6.70;99.90;;;;;;5068135;27;20400;-82
2023/01/15 04:24:26;;;;;;;11.82;1.80;;;6.70;99.90;;;;;;5088621;27;20050;-81
2023/01/15 04:26:52;;;;;;;14.02;2.13;;;6.80;99.90;;;;;;5067153;27;20087;-82
2023/01/15 04:29:18;;;;;;;8.18;2.15;;;6.70;99.90;;;;;;5065564;27;20043;-82
2023/01/15 04:31:44;;;;;;;14.18;2.80;;;6.80;99.90;;;;;;5072899;27;20495;-81
2023/01/15 04:34:10;;;;;;;8.48;2.28;;;6.70;99.90;;;;;;5098046;27;20050;-82
2023/01/15 04:36:35;;;;;;;10.55;2.40;;;5.90;99.90;;;;;;5068797;27;20047;-82
2023/01/15 04:39:03;;;;;;;10.68;2.40;;;6.70;99.90;;;;;;5081942;27;20125;-81
2023/01/15 04:44:14;;;;;;;13.23;2.23;;;;;;;;;;5106757;27;20098;-81
2023/01/15 04:46:43;;;;;;;10.43;2.13;;;6.60;99.90;;;;;;5073926;27;20074;-80
2023/01/15 04:49:16;;;;;;;13.82;2.50;;;6.60;99.90;;;;;;5097489;27;20063;-82
2023/01/15 04:51:42;;;;;;;12.13;2.10;;;6.60;99.90;;;;;;5103899;27;20094;-81
2023/01/15 04:54:11;;;;;;;10.63;2.13;;;6.50;99.90;;;;;;5112316;27;20497;-81
2023/01/15 04:56:40;;;;;;;9.30;2.08;;;6.60;99.90;;;;;;5096023;27;20123;-81
2023/01/15 04:59:09;;;;;;;8.23;2.08;;;6.50;99.90;;;;;;5121859;27;20043;-81
2023/01/15 05:01:36;;;;;;;10.85;1.80;;;6.60;99.90;;;;;;5097830;27;20126;-81
2023/01/15 05:04:02;;;;;;;9.68;2.50;;;6.60;99.90;;;;;;5095452;27;20468;-82
2023/01/15 05:06:30;;;;;;;11.23;1.88;;;6.60;99.90;;;;;;5096277;27;20047;-81
2023/01/15 05:08:56;;;;;;;8.30;1.67;;;6.60;99.90;;;;;;5112734;27;20472;-81
2023/01/15 05:11:22;;;;;;;10.02;2.10;;;6.60;99.90;;;;;;5109157;27;20054;-82
2023/01/15 05:13:52;;;;;;;9.02;1.98;;;6.60;99.90;;;;;;5114898;27;20043;-80
2023/01/15 05:16:22;;;;;;;16.60;2.38;;;6.60;99.90;;;;;;5097250;27;20059;-81
2023/01/15 05:18:48;;;;;;;11.43;2.53;;;6.60;99.90;;;;;;5096742;27;20050;-82
2023/01/15 05:21:23;;;;;;;8.40;1.92;;;6.60;99.90;;;;;;5098618;27;20111;-80
2023/01/15 05:23:51;;;;;;;17.38;2.65;;;6.50;99.90;;;;;;5097163;27;20566;-79
2023/01/15 05:26:18;;;;;;;11.45;2.25;;;6.60;99.90;;;;;;5100212;27;20046;-80
2023/01/15 05:28:44;;;;;;;13.07;2.85;;;6.60;99.90;;;;;;5092111;27;20611;-80
2023/01/15 05:31:12;;;;;;;15.48;2.55;;;6.60;99.90;;;;;;5087769;27;20179;-79
2023/01/15 05:33:38;;;;;;;9.52;2.15;;;6.50;99.90;;;;;;5098181;27;20054;-82
2023/01/15 05:36:10;;;;;;;9.93;2.17;;;6.50;99.90;;;;;;5082836;27;20055;-81
2023/01/15 05:38:36;;;;;;;13.60;2.40;;;6.50;99.90;;;;;;5104336;27;20038;-80
2023/01/15 05:41:47;;;;;;;11.48;2.22;;;6.50;99.90;;;;;;5106631;27;20046;-81
2023/01/15 05:43:53;;;;;;;9.98;2.45;;;6.50;99.90;;;;;;5111669;27;20115;-82
2023/01/15 05:46:20;;;;;;;12.13;2.33;;;7.20;99.90;;;;;;5103006;27;20122;-82
2023/01/15 05:48:46;;;;;;;10.60;2.10;;;6.50;99.90;;;;;;5098101;27;20412;-81
2023/01/15 05:51:11;;;;;;;13.13;2.40;;;6.40;99.90;;;;;;5099164;27;20097;-80
2023/01/15 05:53:37;;;;;;;11.15;2.30;;;6.40;99.90;;;;;;5098732;27;20547;-79
2023/01/15 05:56:04;;;;;;;11.38;2.47;;;6.40;99.90;;;;;;5072568;27;20043;-81
2023/01/15 05:58:30;;;;;;;9.95;2.25;;;6.40;99.90;;;;;;5105354;27;20449;-81
2023/01/15 06:00:56;;;;;;;14.18;2.30;;;6.60;99.90;;;;;;5105108;27;20129;-80
2023/01/15 06:03:23;;;;;;;12.77;2.40;;;6.40;99.90;;;;;;5088585;27;20047;-79
2023/01/15 06:05:54;;;;;;;11.30;2.08;;;6.40;99.90;;;;;;5084314;27;20054;-79
2023/01/15 06:08:21;;;;;;;13.70;2.10;;;6.40;99.90;;;;;;5095646;27;20383;-79
2023/01/15 06:10:48;;;;;;;14.65;2.53;;;6.40;99.90;;;;;;5114928;27;20051;-79
2023/01/15 06:13:14;;;;;;;14.13;2.65;;;5.10;99.90;;;;;;5099825;27;20046;-80
2023/01/15 06:15:40;;;;;;;8.38;1.92;;;6.40;99.90;;;;;;5105933;27;20060;-80
2023/01/15 06:18:10;;;;;;;11.40;2.05;;;6.40;99.90;;;;;;5097130;27;20053;-80
2023/01/15 06:20:37;;;;;;;11.27;3.22;;;6.40;99.90;;;;;;5121320;27;20108;-80
2023/01/15 06:23:03;;;;;;;13.23;1.90;;;6.50;99.90;;;;;;5097025;27;20046;-81
2023/01/15 06:25:29;;;;;;;10.95;2.35;;;6.40;99.90;;;;;;5110823;27;20074;-82
2023/01/15 06:27:55;;;;;;;9.77;1.92;;;6.40;99.90;;;;;;5101119;27;20038;-84
2023/01/15 06:30:20;;;;;;;12.73;1.98;;;6.40;99.90;;;;;;5083014;27;20119;-82
2023/01/15 06:32:46;;;;;;;15.77;2.65;;;6.40;99.90;;;;;;5089736;27;20054;-81
2023/01/15 06:35:13;;;;;;;8.80;2.22;;;6.40;99.90;;;;;;5104433;27;20074;-82
2023/01/15 06:37:39;;;;;;;8.90;1.80;;;;;;;;;;5089665;27;20772;-82
2023/01/15 06:40:05;;;;;;;14.82;2.38;;;6.40;99.90;;;;;;5100275;27;20120;-83
2023/01/15 06:48:00;;;;;;;13.40;2.33;;;6.50;99.90;;;;;;5114277;27;20047;-81
2023/01/15 06:50:26;;;;;;;10.65;2.58;;;6.50;99.90;;;;;;5068025;27;20142;-81
2023/01/15 06:52:51;;;;;;;10.55;2.33;;;6.50;99.90;;;;;;5067907;27;20067;-81
2023/01/15 06:55:17;;;;;;;17.83;2.83;;;6.50;99.90;;;;;;5071644;27;20077;-81
2023/01/15 06:57:44;;;;;;;11.30;2.28;;;6.50;99.90;;;;;;5102301;27;20046;-82
2023/01/15 07:00:11;;;;;;;6.25;1.85;;;6.40;99.90;;;;;;5088033;27;20106;-83
2023/01/15 07:02:40;;;;;;;14.45;1.92;;;6.50;99.90;;;;;;5086318;27;20440;-83
2023/01/15 07:05:06;;;;;;;13.95;3.20;;;6.40;99.90;;;;;;5086218;27;20043;-84
2023/01/15 07:07:32;;;;;;;9.85;2.28;;;6.40;99.90;;;;;;5096377;27;20047;-82
2023/01/15 07:09:58;;;;;;;12.75;2.38;;;6.50;99.90;;;;;;5105271;27;20039;-81
2023/01/15 07:12:24;;;;;;;16.55;2.83;;;6.60;99.90;;;;;;5106817;27;20494;-82
2023/01/15 07:14:50;;;;;;;9.43;1.95;;;6.40;99.90;;;;;;5087252;28;20094;-82
2023/01/15 07:17:16;;;;;;;12.65;2.42;;;6.40;99.90;;;;;;5092756;28;20040;-83
2023/01/15 07:19:42;;;;;;;13.18;2.00;;;6.40;99.90;;;;;;5081071;28;20058;-78
2023/01/15 07:22:09;;;;;;;9.65;2.30;;;6.40;99.90;;;;;;5095974;27;20193;-83
2023/01/15 07:24:36;;;;;;;12.68;2.58;;;6.40;99.90;;;;;;5102473;28;20043;-81
2023/01/15 07:27:02;;;;;;;12.05;2.13;;;6.40;99.90;;;;;;5095361;28;20101;-82
2023/01/15 07:29:28;;;;;;;12.45;2.58;;;6.40;99.90;;;;;;5069284;28;20122;-83
2023/01/15 07:31:55;;;;;;;12.57;2.47;;;6.40;99.90;;;;;;5081095;27;20075;-84
2023/01/15 07:34:21;;;;;;;11.55;2.13;;;4.90;99.90;;;;;;5106704;27;20050;-84
2023/01/15 07:36:47;;;;;;;12.93;2.30;;;6.40;99.90;;;;;;5101584;27;20472;-81
2023/01/15 07:39:13;;;;;;;11.70;2.03;;;6.40;99.90;;;;;;5099145;27;20043;-82
2023/01/15 07:50:00;;;;;;;8.43;1.88;;;6.40;99.90;;;;;;5110428;28;20387;-82
2023/01/15 07:52:26;;;;;;;7.18;1.92;;;6.40;99.90;;;;;;5102239;27;20051;-84
2023/01/15 07:54:51;;;;;;;11.10;1.88;;;6.40;99.90;;;;;;5084623;27;20097;-83
2023/01/15 07:57:20;;;;;;;11.10;2.13;;;6.30;99.90;;;;;;5073909;27;20039;-81
2023/01/15 07:59:46;;;;;;;10.52;2.58;;;6.30;99.90;;;;;;5096803;27;20047;-82
2023/01/15 08:02:12;;;;;;;12.65;2.40;;;6.30;99.90;;;;;;5082277;27;20421;-82
2023/01/15 08:04:38;;;;;;;11.85;2.33;;;5.20;99.90;;;;;;5113753;27;20506;-80
2023/01/15 08:07:05;;;;;;;20.08;2.95;;;6.30;99.90;;;;;;5114615;27;20048;-83
2023/01/15 08:09:31;;;;;;;15.10;2.38;;;6.30;99.90;;;;;;5106639;27;20084;-82
2023/01/15 08:17:33;;;;;;;15.10;2.50;;;6.30;99.90;;;;;;5116861;27;20050;-81
2023/01/15 08:19:59;;;;;;;19.35;3.58;;;6.40;99.90;;;;;;5105124;27;20039;-81
2023/01/15 08:22:24;;;;;;;14.80;3.67;;;6.40;99.90;;;;;;5083914;27;20066;-81
2023/01/15 08:24:50;;;;;;;11.25;2.88;;;6.40;99.90;;;;;;5117985;27;20103;-81
2023/01/15 08:27:16;;;;;;;11.05;2.95;;;6.40;99.90;;;;;;5087198;27;20103;-84
2023/01/15 08:29:42;;;;;;;12.30;2.15;;;6.40;99.90;;;;;;5107192;27;20039;-83
2023/01/15 08:32:10;;;;;;;11.05;3.13;;;6.50;99.90;;;;;;5074423;27;20125;-84
2023/01/15 08:34:36;;;;;;;13.68;2.10;;;6.40;99.90;;;;;;5117046;27;20993;-82
2023/01/15 08:37:02;;;;;;;11.43;2.65;;;6.40;99.90;;;;;;5103537;27;20056;-81
2023/01/15 08:39:28;;;;;;;14.50;3.22;;;6.50;99.90;;;;;;5099624;27;20050;-82
2023/01/15 08:41:55;;;;;;;11.07;2.65;;;6.50;99.90;;;;;;5099469;27;20506;-82
2023/01/15 08:44:22;;;;;;;14.90;2.53;;;6.60;99.90;;;;;;5104515;27;20038;-84
2023/01/15 08:46:50;;;;;;;14.32;2.83;;;6.60;99.90;;;;;;5120257;27;20043;-80
2023/01/15 08:49:16;;;;;;;8.93;2.20;;;6.60;99.90;;;;;;5110236;27;20053;-81
2023/01/15 08:51:48;;;;;;;15.38;3.10;;;6.30;99.90;;;;;;5105489;27;20099;-84
2023/01/15 08:54:16;;;;;;;12.05;2.83;;;6.50;99.90;;;;;;5104304;27;20050;-83
2023/01/15 08:56:42;;;;;;;12.43;2.75;;;6.70;99.90;;;;;;5103092;27;20464;-83
2023/01/15 08:59:09;;;;;;;9.25;2.05;;;5.80;99.90;;;;;;5077422;27;20047;-83
2023/01/15 09:01:41;;;;;;;10.68;2.53;;;6.60;99.90;;;;;;5103675;27;20166;-82
2023/01/15 09:04:08;;;;;;;12.23;2.65;;;6.70;99.90;;;;;;5103275;27;20754;-81
2023/01/15 09:06:34;;;;;;;16.02;3.63;;;6.70;99.90;;;;;;5106065;27;20510;-80
2023/01/15 09:09:00;;;;;;;11.77;2.50;;;6.80;99.90;;;;;;5101974;27;20055;-79
2023/01/15 09:11:26;;;;;;;13.98;2.53;;;6.90;99.90;;;;;;5105176;27;20054;-80
2023/01/15 09:13:52;;;;;;;12.13;2.63;;;6.80;99.90;;;;;;5102633;27;20046;-79
2023/01/15 09:16:18;;;;;;;10.70;2.58;;;6.80;99.90;;;;;;5088176;27;20051;-80
2023/01/15 09:18:44;;;;;;;12.43;2.88;;;6.80;99.90;;;;;;5086878;27;20057;-79
2023/01/15 09:21:10;;;;;;;8.98;2.20;;;6.90;99.90;;;;;;5099091;27;20083;-80
2023/01/15 09:23:36;;;;;;;10.43;2.70;;;6.90;99.90;;;;;;5116779;27;20504;-80
2023/01/15 09:26:05;;;;;;;16.63;2.88;;;6.90;99.90;;;;;;5087501;27;20058;-82
2023/01/15 09:28:34;;;;;;;11.40;3.35;;;6.90;99.90;;;;;;5106680;27;20109;-80
2023/01/15 09:31:00;;;;;;;9.98;2.13;;;6.90;99.90;;;;;;5091509;27;20039;-76
2023/01/15 09:33:26;;;;;;;14.30;2.63;;;6.90;99.90;;;;;;5126656;27;20479;-79
2023/01/15 09:35:52;;;;;;;13.20;2.85;;;7.10;99.90;;;;;;5102548;27;20046;-79
2023/01/15 09:38:20;;;;;;;12.73;2.70;;;7.30;99.90;;;;;;5103433;27;20046;-80
2023/01/15 09:40:58;;;;;;;11.43;2.90;;;7.50;99.90;;;;;;5098736;27;20503;-78
2023/01/15 09:43:39;;;;;;;9.35;2.35;;;7.40;99.90;;;;;;5114990;27;20075;-83
2023/01/15 09:46:22;;;;;;;13.60;2.60;;;7.50;99.90;;;;;;5102274;27;20047;-82
2023/01/15 09:49:19;;;;;;;14.40;2.53;;;7.50;99.90;;;;;;5132673;27;20047;-82
2023/01/15 09:52:11;;;;;;;12.98;2.92;;;7.30;99.90;;;;;;5101698;27;20499;-82
2023/01/15 09:54:47;;;;;;;15.80;2.45;;;7.20;99.90;;;;;;5104176;27;20054;-82
2023/01/15 09:57:16;;;;;;;12.55;2.67;;;7.40;99.90;;;;;;5115566;27;20910;-83
2023/01/15 09:59:46;;;;;;;15.18;2.92;;;7.20;99.90;;;;;;5115380;27;20050;-83
2023/01/15 10:02:26;;;;;;;15.32;3.08;;;7.20;99.90;;;;;;5104680;27;21290;-82
2023/01/15 10:04:58;;;;;;;14.40;3.20;;;7.20;99.90;;;;;;5121931;27;20525;-80
2023/01/15 10:07:39;;;;;;;15.70;2.80;;;6.00;99.90;;;;;;5099552;27;20487;-83
2023/01/15 10:10:12;;;;;;;13.10;3.15;;;7.40;99.90;;;;;;5104339;27;20042;-80
2023/01/15 10:12:39;;;;;;;16.35;2.65;;;7.60;99.90;;;;;;5114930;27;20053;-79
2023/01/15 10:15:40;;;;;;;17.08;2.58;;;7.60;99.90;;;;;;5090761;27;20075;-82
2023/01/15 10:18:10;;;;;;;16.95;3.13;;;7.40;99.90;;;;;;5099214;27;20472;-82
2023/01/15 10:21:04;;;;;;;15.32;2.72;;;7.40;99.90;;;;;;5115571;27;20131;-81
2023/01/15 10:23:34;;;;;;;17.02;3.47;;;7.60;99.90;;;;;;5114942;27;20058;-82
2023/01/15 10:26:00;;;;;;;13.65;3.28;;;7.60;99.90;;;;;;5104510;27;20078;-82
2023/01/15 10:28:31;;;;;;;12.80;3.05;;;7.80;99.90;;;;;;5115891;27;20531;-82
2023/01/15 10:31:16;;;;;;;13.23;2.67;;;7.60;99.90;;;;;;5090177;27;20091;-80
2023/01/15 10:34:05;;;;;;;16.38;3.25;;;7.60;99.90;;;;;;5096271;27;20051;-81
2023/01/15 10:36:38;;;;;;;13.85;2.92;;;7.50;99.90;;;;;;5115955;27;20043;-81
2023/01/15 10:39:26;;;;;;;12.15;2.80;;;7.50;99.90;;;;;;5103824;27;20057;-81
2023/01/15 10:42:10;;;;;;;12.57;2.60;;;7.40;99.90;;;;;;5116834;27;20530;-82
2023/01/15 10:44:42;;;;;;;16.33;3.58;;;7.30;99.90;;;;;;5113142;27;20039;-81
2023/01/15 10:47:14;;;;;;;16.48;2.90;;;7.20;99.90;;;;;;5106169;27;20134;-79
2023/01/15 10:49:41;;;;;;;11.48;2.70;;;7.20;99.90;;;;;;5103751;27;20046;-84
2023/01/15 10:52:19;;;;;;;13.10;3.45;;;7.20;99.90;;;;;;5107719;27;20042;-81
2023/01/15 10:54:52;;;;;;;18.90;3.38;;;7.30;99.90;;;;;;5110739;27;20272;-82
2023/01/15 10:58:06;;;;;;;22.42;3.38;;;7.80;99.90;;;;;;5105424;27;20047;-81
2023/01/15 11:00:32;;;;;;;19.52;3.20;;;7.20;99.90;;;;;;5108104;27;20086;-83
2023/01/15 11:03:07;;;;;;;12.38;2.42;;;7.10;99.90;;;;;;5070749;27;20047;-85
2023/01/15 11:05:34;;;;;;;16.55;2.78;;;7.10;99.90;;;;;;5119991;27;20054;-82
2023/01/15 11:08:31;;;;;;;10.38;2.28;;;7.10;99.90;;;;;;5102986;27;20050;-84
2023/01/15 11:11:03;;;;;;;11.93;3.03;;;7.00;99.90;;;;;;5129031;27;20046;-85
2023/01/15 11:21:51;;;;;;;12.00;2.78;;;6.90;99.90;;;;;;5115067;27;20051;-82
2023/01/15 11:24:20;;;;;;;24.45;4.00;;;6.90;99.90;;;;;;5114375;27;20133;-82
2023/01/15 11:26:51;;;;;;;13.95;3.10;;;6.80;99.90;;;;;;5102006;27;20513;-82
2023/01/15 11:29:36;;;;;;;18.52;3.10;;;6.70;99.90;;;;;;5109097;27;20102;-82
2023/01/15 11:32:03;;;;;;;19.33;3.20;;;6.60;99.90;;;;;;5102690;27;20945;-82
2023/01/15 11:34:29;;;;;;;13.85;3.38;;;6.60;99.90;;;;;;5108244;27;20046;-83
2023/01/15 11:37:05;;;;;;;17.08;3.42;;;6.40;99.90;;;;;;5102986;27;20035;-83
2023/01/15 11:39:31;;;;;;;14.45;3.08;;;6.40;99.90;;;;;;5117781;27;20496;-81
2023/01/15 11:53:17;;;;;;;16.30;2.88;;;6.50;99.90;;;;;;5103695;27;20446;-81
2023/01/15 11:56:01;;;;;;;12.70;3.15;;;6.50;99.90;;;;;;5118898;27;20050;-80
2023/01/15 11:58:32;;;;;;;14.32;3.22;;;5.40;99.90;;;;;;5103464;27;20572;-80
2023/01/15 12:00:59;;;;;;;18.25;3.78;;;6.60;99.90;;;;;;5120758;27;20049;-80
2023/01/15 12:03:29;;;;;;;18.92;2.83;;;6.60;99.90;;;;;;5101397;27;20487;-81
2023/01/15 12:06:04;;;;;;;20.20;3.50;;;6.60;99.90;;;;;;5101641;27;20070;-78
2023/01/15 12:08:56;;;;;;;19.35;3.70;;;6.50;99.90;;;;;;5108140;27;20050;-81
2023/01/15 12:11:45;;;;;;;11.43;3.13;;;6.50;99.90;;;;;;5106212;27;20198;-81
2023/01/15 12:14:32;;;;;;;20.70;3.45;;;6.50;99.90;;;;;;5116082;27;20047;-79
2023/01/15 12:17:05;;;;;;;18.67;3.08;;;6.50;99.90;;;;;;5104058;27;20058;-80
2023/01/15 12:19:53;;;;;;;14.25;3.45;;;6.40;99.90;;;;;;5103098;27;20514;-81
2023/01/15 12:22:37;;;;;;;20.58;3.13;;;7.30;99.90;;;;;;5104857;27;20049;-85
2023/01/15 12:25:39;;;;;;;20.27;3.33;;;6.40;99.90;;;;;;5113893;27;20128;-86
2023/01/15 12:28:16;;;;;;;15.63;3.33;;;6.50;99.90;;;;;;5111716;27;20050;-84
2023/01/15 12:30:59;;;;;;;15.27;3.38;;;6.50;99.90;;;;;;5106525;27;20655;-84
2023/01/15 12:33:46;;;;;;;15.98;3.50;;;6.50;99.90;;;;;;5109746;27;20483;-86
2023/01/15 12:36:36;;;;;;;13.65;2.92;;;6.50;99.90;;;;;;5116446;27;20091;-77
2023/01/15 12:39:29;;;;;;;19.80;3.90;;;6.50;99.90;;;;;;5101858;27;20042;-81
2023/01/15 12:45:04;;;;;;;12.82;3.50;;;6.50;99.90;;;;;;5114492;27;20057;-80
2023/01/15 12:47:51;;;;;;;14.27;2.65;;;6.40;99.90;;;;;;5105547;27;20138;-80
2023/01/15 12:50:36;;;;;;;15.23;2.50;;;6.10;99.90;;;;;;5108745;27;20045;-81
2023/01/15 12:53:42;;;;;;;18.58;3.05;;;5.70;99.90;;;;;;5109784;27;20078;-81
2023/01/15 12:56:22;;;;;;;14.90;2.50;;;5.50;99.90;;;;;;5109371;27;20043;-80
2023/01/15 12:58:53;;;;;;;12.68;2.10;;;5.30;99.90;;;;;;5102239;27;20135;-79
2023/01/15 13:01:50;;;;;;;10.77;1.63;;;5.30;99.90;;;;;;5119468;27;20043;-82
2023/01/15 13:04:43;;;;;;;5.68;1.55;;;5.10;99.90;;;;;;5114096;27;20798;-81
2023/01/15 13:07:25;;;;;;;9.73;1.95;;;5.20;99.90;;;;;;5102620;27;20061;-81
2023/01/15 13:10:18;;;;;;;8.82;1.77;;;5.30;99.90;;;;;;5105573;27;20166;-80
2023/01/15 13:12:47;;;;;;;12.77;2.03;;;5.50;99.90;;;;;;5101114;27;20215;-80
2023/01/15 13:15:18;;;;;;;15.73;3.00;;;5.60;99.90;;;;;;5100754;27;20127;-80
2023/01/15 13:18:14;;;;;;;17.55;3.17;;;5.90;99.90;;;;;;5106649;27;20085;-81
2023/01/15 13:20:50;;;;;;;13.60;2.93;;;6.10;99.90;;;;;;5114264;27;20047;-83
2023/01/15 13:23:30;;;;;;;9.57;2.38;;;6.10;99.90;;;;;;5090464;27;20300;-78
2023/01/15 13:26:06;;;;;;;11.85;3.03;;;6.30;99.90;;;;;;5104494;27;20054;-81
2023/01/15 13:28:50;;;;;;;13.50;3.08;;;6.40;99.90;;;;;;5102380;27;20047;-79
2023/01/15 13:31:52;;;;;;;14.35;3.65;;;6.40;99.90;;;;;;5117329;27;20047;-79
2023/01/15 13:34:46;;;;;;;16.08;2.80;;;6.50;99.90;;;;;;5117245;27;20050;-79
2023/01/15 13:37:24;;;;;;;15.13;2.58;;;6.50;99.90;;;;;;5115779;27;20062;-80
2023/01/15 13:39:56;;;;;;;10.77;2.60;;;6.50;99.90;;;;;;5090002;27;20047;-80
2023/01/15 13:42:37;;;;;;;11.13;2.47;;;6.60;99.90;;;;;;5109378;27;20188;-80
2023/01/15 13:45:19;;;;;;;19.55;4.28;;;6.60;99.90;;;;;;5103948;27;20054;-80
2023/01/15 13:47:49;;;;;;;9.70;2.50;;;6.60;99.90;;;;;;5107127;27;20150;-79
2023/01/15 13:50:42;;;;;;;16.23;3.75;;;6.70;99.90;;;;;;5117612;27;20039;-79
2023/01/15 13:53:28;;;;;;;11.15;2.50;;;6.70;99.90;;;;;;5102048;27;20223;-78
2023/01/15 13:55:58;;;;;;;12.32;2.42;;;6.70;99.90;;;;;;5103536;27;20510;-80
2023/01/15 13:58:29;;;;;;;12.18;2.50;;;6.80;99.90;;;;;;5105070;27;20057;-80
2023/01/15 14:01:06;;;;;;;11.45;2.75;;;6.80;99.90;;;;;;5115012;27;20074;-79
2023/01/15 14:03:36;;;;;;;19.65;3.13;;;6.80;99.90;;;;;;5116157;27;20050;-80
2023/01/15 14:06:05;;;;;;;15.57;3.00;;;6.80;99.90;;;;;;5104413;27;20051;-79
2023/01/15 14:08:44;;;;;;;14.07;2.50;;;6.80;99.90;;;;;;5133642;27;20039;-79